createdAt,value
2019-02-17T00:01:42.250Z,5.20
2019-02-17T00:07:46.582Z,5.00
2019-02-17T00:13:50.820Z,5.10
2019-02-17T00:19:55.254Z,4.80
2019-02-17T00:25:59.581Z,4.80
2019-02-17T00:32:03.855Z,5.00
2019-02-17T00:38:08.175Z,4.80
2019-02-17T00:44:12.404Z,4.80
2019-02-17T00:50:16.656Z,4.80
2019-02-17T00:56:20.928Z,4.60
2019-02-17T01:02:25.260Z,4.80
2019-02-17T01:08:29.491Z,4.80
2019-02-17T01:14:33.773Z,4.90
2019-02-17T01:20:38.073Z,4.70
2019-02-17T01:26:42.313Z,4.60
2019-02-17T01:32:46.743Z,4.30
2019-02-17T01:38:51.031Z,4.20
2019-02-17T01:44:55.387Z,3.90
2019-02-17T01:50:59.610Z,4.00
2019-02-17T01:57:03.921Z,3.80
2019-02-17T02:03:08.163Z,4.10
2019-02-17T02:09:12.434Z,4.10
2019-02-17T02:15:16.642Z,4.10
2019-02-17T02:21:20.898Z,4.50
2019-02-17T02:27:25.187Z,4.40
2019-02-17T02:33:29.369Z,4.60
2019-02-17T02:39:33.569Z,4.60
2019-02-17T02:45:37.843Z,4.50
2019-02-17T02:51:42.052Z,4.50
2019-02-17T02:57:46.385Z,4.40
2019-02-17T03:03:50.664Z,4.30
2019-02-17T03:09:55.002Z,4.20
2019-02-17T03:15:59.214Z,4.10
2019-02-17T03:22:03.580Z,4.10
2019-02-17T03:28:07.826Z,4.10
2019-02-17T03:34:12.093Z,4.00
2019-02-17T03:40:16.295Z,3.80
2019-02-17T03:46:20.631Z,3.80
2019-02-17T03:52:24.843Z,3.60
2019-02-17T03:58:29.204Z,3.80
2019-02-17T04:04:33.499Z,3.80
2019-02-17T04:10:37.711Z,3.60
2019-02-17T04:16:41.897Z,3.60
2019-02-17T04:22:46.283Z,3.90
2019-02-17T04:28:50.583Z,4.10
2019-02-17T04:34:54.851Z,4.20
2019-02-17T04:40:59.064Z,4.00
2019-02-17T04:47:03.525Z,3.60
2019-02-17T04:53:07.705Z,3.90
2019-02-17T04:59:11.983Z,3.80
2019-02-17T05:05:16.266Z,3.90
2019-02-17T05:11:20.530Z,3.90
2019-02-17T05:17:24.823Z,3.80
2019-02-17T05:23:29.087Z,3.90
2019-02-17T05:29:33.396Z,4.00
2019-02-17T05:35:37.613Z,4.10
2019-02-17T05:41:41.839Z,4.20
2019-02-17T05:47:46.204Z,4.30
2019-02-17T05:53:50.402Z,4.30
2019-02-17T05:59:54.740Z,4.20
2019-02-17T06:05:59.018Z,4.20
2019-02-17T06:12:03.350Z,4.20
2019-02-17T06:18:07.557Z,4.30
2019-02-17T06:24:11.822Z,4.30
2019-02-17T06:30:16.056Z,4.30
2019-02-17T06:36:20.289Z,4.30
2019-02-17T06:42:24.568Z,4.30
2019-02-17T06:48:28.899Z,4.00
2019-02-17T06:54:33.225Z,4.00
2019-02-17T07:00:43.122Z,4.00
2019-02-17T07:06:52.679Z,4.00
2019-02-17T07:12:56.968Z,4.10
2019-02-17T07:19:01.256Z,4.00
2019-02-17T07:25:05.515Z,4.10
2019-02-17T07:31:09.815Z,4.10
2019-02-17T07:37:14.038Z,4.20
2019-02-17T07:43:18.281Z,4.40
2019-02-17T07:49:22.535Z,4.60
2019-02-17T07:55:26.717Z,4.80
2019-02-17T08:01:30.970Z,5.20
2019-02-17T08:07:35.290Z,5.40
2019-02-17T08:13:39.557Z,5.60
2019-02-17T08:19:43.799Z,6.00
2019-02-17T08:25:48.061Z,6.30
2019-02-17T08:31:55.966Z,6.80
2019-02-17T08:37:58.585Z,7.30
2019-02-17T08:44:02.810Z,8.20
2019-02-17T08:50:08.698Z,7.80
2019-02-17T08:56:13.002Z,7.80
2019-02-17T09:02:17.222Z,8.00
2019-02-17T09:08:21.518Z,8.10
2019-02-17T09:14:26.162Z,8.30
2019-02-17T09:20:30.358Z,8.70
2019-02-17T09:26:37.678Z,8.70
2019-02-17T09:32:41.964Z,8.80
2019-02-17T09:38:46.258Z,9.40
2019-02-17T09:44:50.538Z,9.30
2019-02-17T09:50:54.889Z,10.20
2019-02-17T09:56:59.085Z,9.80
2019-02-17T10:03:03.439Z,10.10
2019-02-17T10:09:07.772Z,10.00
2019-02-17T10:15:13.068Z,10.00
2019-02-17T10:21:17.292Z,10.20
2019-02-17T10:27:21.548Z,10.50
2019-02-17T10:33:25.835Z,10.50
2019-02-17T10:39:30.139Z,10.40
2019-02-17T10:45:34.463Z,11.30
2019-02-17T10:51:38.803Z,11.00
2019-02-17T10:57:43.295Z,11.20
2019-02-17T11:04:04.500Z,12.10
2019-02-17T11:10:10.783Z,11.50
2019-02-17T11:16:15.138Z,11.90
2019-02-17T11:22:23.100Z,11.80
2019-02-17T11:28:25.396Z,12.40
2019-02-17T11:34:29.712Z,12.50
2019-02-17T11:40:37.001Z,12.80
2019-02-17T11:46:41.326Z,13.00
2019-02-17T11:52:45.587Z,13.50
2019-02-17T11:58:50.012Z,13.30
2019-02-17T12:04:54.409Z,13.70
2019-02-17T12:10:58.646Z,13.80
2019-02-17T12:17:02.871Z,13.80
2019-02-17T12:23:11.453Z,13.70
2019-02-17T12:29:23.992Z,13.80
2019-02-17T12:35:28.422Z,13.70
2019-02-17T12:41:32.654Z,13.70
2019-02-17T12:47:36.908Z,14.00
2019-02-17T12:53:41.690Z,14.10
2019-02-17T12:59:45.943Z,14.10
2019-02-17T13:05:50.152Z,14.30
2019-02-17T13:11:54.380Z,14.40
2019-02-17T13:17:58.684Z,14.40
2019-02-17T13:24:03.131Z,14.30
2019-02-17T13:30:18.885Z,14.40
2019-02-17T13:36:23.490Z,14.40
2019-02-17T13:42:27.764Z,14.30
2019-02-17T13:48:32.129Z,14.50
2019-02-17T13:54:36.616Z,14.60
2019-02-17T14:00:40.886Z,14.10
2019-02-17T14:06:45.131Z,14.40
2019-02-17T14:12:49.443Z,14.80
2019-02-17T14:18:53.761Z,14.40
2019-02-17T14:24:58.277Z,14.70
2019-02-17T14:31:02.587Z,14.50
2019-02-17T14:37:06.951Z,14.60
2019-02-17T14:43:11.458Z,14.50
2019-02-17T14:49:15.761Z,14.50
2019-02-17T14:55:19.972Z,14.60
2019-02-17T15:01:24.195Z,14.70
2019-02-17T15:07:28.573Z,14.60
2019-02-17T15:13:32.868Z,14.60
2019-02-17T15:19:37.082Z,14.50
2019-02-17T15:25:41.297Z,14.50
2019-02-17T15:31:45.712Z,14.80
2019-02-17T15:37:50.012Z,14.80
2019-02-17T15:43:54.224Z,14.90
2019-02-17T15:49:58.431Z,14.80
2019-02-17T15:56:02.714Z,14.10
2019-02-17T16:02:07.032Z,14.50
2019-02-17T16:08:11.220Z,14.50
2019-02-17T16:14:15.500Z,14.10
2019-02-17T16:20:19.716Z,13.90
2019-02-17T16:26:23.974Z,13.80
2019-02-17T16:32:28.270Z,14.00
2019-02-17T16:38:32.501Z,13.60
2019-02-17T16:44:36.730Z,13.90
2019-02-17T16:50:41.200Z,13.20
2019-02-17T16:56:45.457Z,13.10
2019-02-17T17:02:49.793Z,13.40
2019-02-17T17:08:54.005Z,12.80
2019-02-17T17:14:58.220Z,12.50
2019-02-17T17:21:02.478Z,12.70
2019-02-17T17:27:06.722Z,12.50
2019-02-17T17:33:10.899Z,12.20
2019-02-17T17:39:15.288Z,12.00
2019-02-17T17:45:19.564Z,11.80
2019-02-17T17:51:23.877Z,11.70
2019-02-17T17:57:28.111Z,11.80
2019-02-17T18:03:32.451Z,11.50
2019-02-17T18:09:36.673Z,11.20
2019-02-17T18:15:40.977Z,11.00
2019-02-17T18:21:45.219Z,10.90
2019-02-17T18:27:49.472Z,10.80
2019-02-17T18:33:54.589Z,10.70
2019-02-17T18:39:59.021Z,10.70
2019-02-17T18:46:03.248Z,10.60
2019-02-17T18:52:07.613Z,10.50
2019-02-17T18:58:11.823Z,10.40
2019-02-17T19:04:16.217Z,10.30
2019-02-17T19:10:20.444Z,10.20
2019-02-17T19:16:24.671Z,10.10
2019-02-17T19:22:28.880Z,10.00
2019-02-17T19:28:33.228Z,10.00
2019-02-17T19:34:37.523Z,9.90
2019-02-17T19:40:41.914Z,9.90
2019-02-17T19:46:46.083Z,9.80
2019-02-17T19:52:50.398Z,9.70
2019-02-17T19:58:54.624Z,9.70
2019-02-17T20:05:12.111Z,9.70
2019-02-17T20:11:16.478Z,9.70
2019-02-17T20:17:20.764Z,9.60
2019-02-17T20:23:25.057Z,9.50
2019-02-17T20:29:29.326Z,9.50
2019-02-17T20:35:33.636Z,9.40
2019-02-17T20:41:37.920Z,9.30
2019-02-17T20:47:42.127Z,9.20
2019-02-17T20:53:46.320Z,9.00
2019-02-17T20:59:50.530Z,8.60
2019-02-17T21:05:55.520Z,8.50
2019-02-17T21:11:59.721Z,8.50
2019-02-17T21:18:03.940Z,8.40
2019-02-17T21:24:08.164Z,8.20
2019-02-17T21:30:12.571Z,8.00
2019-02-17T21:36:23.174Z,7.90
2019-02-17T21:42:23.505Z,7.60
2019-02-17T21:48:27.740Z,7.50
2019-02-17T21:54:32.037Z,7.40
2019-02-17T22:00:36.379Z,7.30
2019-02-17T22:06:40.559Z,7.20
2019-02-17T22:12:44.810Z,7.20
2019-02-17T22:18:49.013Z,7.40
2019-02-17T22:24:53.346Z,7.40
2019-02-17T22:30:57.543Z,7.30
2019-02-17T22:37:01.841Z,6.90
2019-02-17T22:43:06.134Z,6.70
2019-02-17T22:49:10.500Z,6.60
2019-02-17T22:55:14.912Z,6.50
2019-02-17T23:01:24.273Z,6.30
2019-02-17T23:07:28.650Z,6.50
2019-02-17T23:13:33.071Z,6.60
2019-02-17T23:19:37.361Z,6.60
2019-02-17T23:25:41.548Z,6.70
2019-02-17T23:31:45.799Z,6.50
2019-02-17T23:37:50.814Z,6.50
2019-02-17T23:43:55.012Z,6.30
2019-02-17T23:49:59.390Z,6.40
2019-02-17T23:56:03.579Z,6.30
